LFPB/LBG METAR and TAF weather

Enter ICAO airport designator
Station Type Date Time Source
LFPB METAR 2021/07/29 18:30 UTC NOAA

LFPB 291830Z AUTO 25004KT 220V280 CAVOK 22/11 Q1012 NOSIG


Station Type Date Time Source
LFPB Decoded METAR 2021/07/29 18:30 UTC NOAA

Paris / Le Bourget, France (LFPB) 48-58N 002-27E 65M
Jul 29, 2021 - 02:30 PM EDT / 2021.07.29 1830 UTC
Wind: from the WSW (250 degrees) at 5 MPH (4 KT) (direction variable):0
Visibility: greater than 7 mile(s):0
Temperature: 71 F (22 C)
Dew Point: 51 F (11 C)
Relative Humidity: 49%
Pressure (altimeter): 29.88 in. Hg (1012 hPa)
ob: LFPB 291830Z AUTO 25004KT 220V280 CAVOK 22/11 Q1012 NOSIG
cycle: 18

Station Type Date Time Source
LFPB TAF 2021/07/29 18:21 UTC NOAA

TAF LFPB 291700Z 2918/3018 24010KT CAVOK
BECMG 2920/2922 16005KT
BECMG 3005/3007 22010KT
TEMPO 3009/3018 25015G25KT

Example: see airport list